Indian River Shores, Florida
Current Conditions -  °F | °C
As of 3:53 AM on Sunday 26 Oct 2014 (Local Time) from KVRB Reporting Station
Clear Clear  
Wind Chill: 63°   Ceiling: Unl
Heat Index: 63°   Visibility: 10mi
Dew Point: 59°   Wind: 7mph
Humidity: 87%   Direction: 330°NNW
Pressure: 29.93"   Gusts: NA
Location:  27.7066°N, 80.3826°W
Report Text: KVRB 260753Z AUTO 33006KT 10SM CLR 17/15 A2993 RMK AO2 SLP132 T01720150 $
Loading
Personal Weather Stations






























Interactive Weather Map New forecast layout! Learn more

10-Day Weather Forecast

Advertisements
Track Severe Weather on mobile